createdAt,value
2022-12-01T00:01:37.052Z,14.55
2022-12-01T00:04:05.575Z,14.40
2022-12-01T00:06:33.834Z,14.13
2022-12-01T00:09:20.859Z,13.95
2022-12-01T00:11:49.357Z,14.77
2022-12-01T00:14:17.657Z,13.75
2022-12-01T00:16:46.051Z,14.88
2022-12-01T00:19:14.557Z,13.52
2022-12-01T00:21:42.773Z,14.38
2022-12-01T00:24:12.092Z,13.15
2022-12-01T00:26:40.406Z,13.23
2022-12-01T00:29:09.404Z,13.82
2022-12-01T00:31:37.690Z,13.77
2022-12-01T00:34:11.473Z,14.18
2022-12-01T00:36:40.006Z,12.32
2022-12-01T00:39:09.586Z,12.38
2022-12-01T00:41:37.773Z,12.45
2022-12-01T00:44:06.236Z,12.02
2022-12-01T00:46:36.091Z,11.93
2022-12-01T00:49:06.118Z,13.38
2022-12-01T00:51:34.257Z,13.20
2022-12-01T00:54:02.463Z,12.93
2022-12-01T00:56:30.969Z,14.00
2022-12-01T00:58:59.582Z,11.60
2022-12-01T01:01:28.030Z,12.70
2022-12-01T01:03:57.632Z,12.32
2022-12-01T01:06:25.833Z,12.20
2022-12-01T01:08:54.072Z,12.55
2022-12-01T01:11:22.476Z,12.80
2022-12-01T01:13:50.669Z,12.15
2022-12-01T01:16:21.312Z,11.70
2022-12-01T01:18:49.974Z,12.85
2022-12-01T01:21:23.821Z,10.40
2022-12-01T01:23:53.225Z,9.80
2022-12-01T01:26:25.483Z,11.05
2022-12-01T01:28:56.490Z,10.23
2022-12-01T01:31:26.287Z,10.30
2022-12-01T01:33:56.688Z,10.27
2022-12-01T01:36:25.593Z,9.40
2022-12-01T01:38:55.167Z,9.93
2022-12-01T01:41:24.430Z,10.93
2022-12-01T01:43:55.509Z,10.38
2022-12-01T01:46:29.585Z,11.65
2022-12-01T01:49:05.929Z,11.45
2022-12-01T01:51:40.912Z,10.75
2022-12-01T01:54:15.728Z,11.00
2022-12-01T01:56:48.778Z,11.50
2022-12-01T01:59:21.737Z,10.20
2022-12-01T02:02:00.364Z,10.85
2022-12-01T02:04:29.611Z,11.88
2022-12-01T02:06:57.796Z,11.50
2022-12-01T02:09:26.066Z,10.93
2022-12-01T02:12:03.405Z,11.57
2022-12-01T02:14:41.520Z,12.68
2022-12-01T02:17:31.593Z,14.02
2022-12-01T02:20:30.359Z,14.05
2022-12-01T02:23:01.354Z,14.07
2022-12-01T02:25:38.352Z,14.50
2022-12-01T02:28:44.087Z,14.85
2022-12-01T02:31:16.073Z,15.45
2022-12-01T02:34:03.013Z,14.90
2022-12-01T02:36:46.318Z,15.05
2022-12-01T02:39:35.657Z,14.10
2022-12-01T02:42:34.798Z,15.13
2022-12-01T02:45:06.251Z,13.60
2022-12-01T02:47:36.893Z,16.05
2022-12-01T02:50:07.612Z,15.60
2022-12-01T02:52:36.574Z,14.60
2022-12-01T02:55:05.040Z,14.77
2022-12-01T02:57:33.270Z,15.02
2022-12-01T03:00:02.389Z,14.50
2022-12-01T03:02:53.181Z,14.38
2022-12-01T03:05:45.654Z,15.30
2022-12-01T03:08:21.022Z,13.63
2022-12-01T03:10:54.614Z,12.75
2022-12-01T03:14:08.458Z,13.07
2022-12-01T03:16:42.110Z,14.13
2022-12-01T03:19:14.725Z,14.40
2022-12-01T03:22:08.775Z,13.70
2022-12-01T03:24:38.963Z,13.55
2022-12-01T03:27:09.850Z,13.40
2022-12-01T03:29:43.214Z,12.25
2022-12-01T03:32:29.092Z,11.48
2022-12-01T03:35:04.792Z,12.88
2022-12-01T03:37:48.306Z,12.52
2022-12-01T03:40:21.677Z,11.38
2022-12-01T03:45:36.649Z,10.77
2022-12-01T03:48:05.747Z,9.38
2022-12-01T03:51:01.193Z,10.95
2022-12-01T03:53:56.936Z,10.30
2022-12-01T03:56:33.473Z,9.40
2022-12-01T03:59:05.182Z,9.25
2022-12-01T04:01:39.986Z,9.57
2022-12-01T04:04:14.631Z,10.27
2022-12-01T04:06:48.923Z,11.10
2022-12-01T04:09:17.318Z,10.60
2022-12-01T04:12:04.418Z,11.32
2022-12-01T04:14:32.548Z,12.13
2022-12-01T04:17:00.778Z,13.02
2022-12-01T04:19:32.222Z,13.10
2022-12-01T04:22:00.417Z,12.13
2022-12-01T04:24:28.661Z,13.32
2022-12-01T04:26:56.884Z,14.10
2022-12-01T04:29:25.083Z,13.07
2022-12-01T04:31:53.442Z,14.82
2022-12-01T04:34:21.870Z,14.52
2022-12-01T04:36:50.163Z,12.77
2022-12-01T04:39:18.447Z,12.93
2022-12-01T04:41:46.769Z,13.38
2022-12-01T04:44:15.576Z,14.73
2022-12-01T04:46:44.222Z,13.93
2022-12-01T04:49:12.502Z,13.65
2022-12-01T04:51:40.713Z,13.65
2022-12-01T04:54:08.914Z,12.70
2022-12-01T04:56:37.110Z,12.32
2022-12-01T04:59:05.308Z,12.40
2022-12-01T05:01:33.721Z,12.82
2022-12-01T05:04:02.678Z,12.88
2022-12-01T05:06:31.274Z,12.23
2022-12-01T05:09:01.710Z,12.38
2022-12-01T05:11:31.629Z,12.77
2022-12-01T05:14:00.422Z,13.05
2022-12-01T05:16:34.200Z,13.18
2022-12-01T05:19:23.647Z,12.63
2022-12-01T05:21:52.516Z,11.85
2022-12-01T05:24:22.556Z,12.02
2022-12-01T05:26:50.784Z,12.40
2022-12-01T05:29:19.026Z,12.50
2022-12-01T05:31:47.764Z,12.05
2022-12-01T05:34:16.124Z,11.93
2022-12-01T05:36:44.419Z,11.73
2022-12-01T05:39:12.651Z,12.32
2022-12-01T05:41:40.876Z,11.93
2022-12-01T05:44:09.046Z,12.40
2022-12-01T05:46:37.248Z,11.98
2022-12-01T05:49:06.576Z,12.13
2022-12-01T05:51:34.745Z,11.63
2022-12-01T05:54:03.274Z,11.90
2022-12-01T05:56:31.457Z,11.27
2022-12-01T05:58:59.679Z,9.80
2022-12-01T06:01:27.902Z,10.70
2022-12-01T06:03:56.055Z,10.70
2022-12-01T06:06:24.281Z,11.00
2022-12-01T06:08:52.530Z,11.60
2022-12-01T06:11:20.735Z,12.05
2022-12-01T06:13:48.905Z,10.00
2022-12-01T06:16:17.135Z,11.32
2022-12-01T06:18:45.310Z,10.55
2022-12-01T06:21:13.537Z,12.02
2022-12-01T06:23:41.772Z,12.02
2022-12-01T06:26:10.048Z,10.98
2022-12-01T06:28:38.228Z,13.40
2022-12-01T06:31:06.708Z,16.67
2022-12-01T06:33:34.886Z,15.63
2022-12-01T06:36:05.603Z,14.77
2022-12-01T06:38:35.682Z,13.15
2022-12-01T06:41:05.452Z,13.93
2022-12-01T06:43:37.828Z,13.13
2022-12-01T06:46:06.560Z,13.80
2022-12-01T06:48:35.217Z,13.57
2022-12-01T06:51:03.728Z,14.18
2022-12-01T06:53:32.393Z,12.70
2022-12-01T06:56:02.426Z,13.40
2022-12-01T06:58:31.358Z,13.07
2022-12-01T07:01:09.836Z,13.10
2022-12-01T07:03:39.715Z,12.60
2022-12-01T07:06:07.979Z,12.65
2022-12-01T07:08:36.452Z,12.23
2022-12-01T07:11:14.346Z,12.35
2022-12-01T07:13:45.526Z,12.00
2022-12-01T07:16:13.884Z,12.93
2022-12-01T07:18:44.533Z,16.52
2022-12-01T07:21:16.750Z,14.05
2022-12-01T07:23:44.958Z,14.38
2022-12-01T07:26:14.738Z,13.20
2022-12-01T07:28:43.595Z,12.88
2022-12-01T07:31:15.202Z,12.93
2022-12-01T07:33:44.025Z,11.90
2022-12-01T07:36:13.624Z,11.57
2022-12-01T07:38:42.230Z,11.98
2022-12-01T07:41:12.839Z,11.25
2022-12-01T07:43:41.839Z,12.57
2022-12-01T07:46:22.681Z,11.77
2022-12-01T07:48:53.167Z,11.73
2022-12-01T07:51:22.961Z,11.60
2022-12-01T07:53:53.282Z,11.50
2022-12-01T07:56:22.696Z,11.38
2022-12-01T07:58:53.837Z,11.45
2022-12-01T08:01:24.889Z,13.60
2022-12-01T08:03:58.277Z,12.57
2022-12-01T08:08:54.982Z,11.68
2022-12-01T08:11:26.316Z,12.02
2022-12-01T08:13:54.806Z,11.35
2022-12-01T08:16:24.520Z,13.25
2022-12-01T08:18:53.612Z,14.23
2022-12-01T08:21:23.552Z,15.25
2022-12-01T08:23:58.749Z,14.52
2022-12-01T08:26:27.556Z,15.85
2022-12-01T08:28:56.281Z,15.95
2022-12-01T08:31:31.314Z,14.27
2022-12-01T08:33:59.547Z,17.25
2022-12-01T08:36:28.628Z,15.80
2022-12-01T08:38:57.027Z,15.27
2022-12-01T08:41:25.562Z,14.55
2022-12-01T08:43:59.083Z,15.07
2022-12-01T08:46:31.047Z,13.73
2022-12-01T08:48:59.369Z,15.77
2022-12-01T08:51:28.174Z,14.40
2022-12-01T08:53:58.234Z,13.68
2022-12-01T08:56:32.624Z,12.90
2022-12-01T08:59:01.305Z,13.13
2022-12-01T09:01:29.694Z,13.60
2022-12-01T09:04:06.143Z,13.20
2022-12-01T09:06:43.574Z,11.63
2022-12-01T09:09:14.014Z,12.13
2022-12-01T09:11:45.890Z,11.65
2022-12-01T09:14:15.757Z,11.50
2022-12-01T09:16:45.197Z,12.32
2022-12-01T09:19:17.912Z,12.50
2022-12-01T09:21:50.421Z,12.52
2022-12-01T09:24:18.821Z,10.23
2022-12-01T09:26:47.226Z,12.05
2022-12-01T09:29:16.846Z,11.13
2022-12-01T09:31:45.375Z,10.60
2022-12-01T09:34:17.545Z,11.20
2022-12-01T09:36:46.378Z,11.35
2022-12-01T09:39:17.310Z,9.98
2022-12-01T09:42:12.928Z,10.73
2022-12-01T09:44:47.695Z,10.77
2022-12-01T09:47:23.082Z,11.07
2022-12-01T09:50:12.821Z,10.10
2022-12-01T09:52:46.513Z,6.70
2022-12-01T09:55:18.065Z,8.95
2022-12-01T09:57:55.215Z,8.13
2022-12-01T10:00:32.241Z,6.68
2022-12-01T10:03:20.346Z,6.97
2022-12-01T10:06:25.946Z,8.77
2022-12-01T10:09:15.451Z,7.93
2022-12-01T10:11:46.056Z,8.80
2022-12-01T10:14:20.763Z,8.43
2022-12-01T10:16:55.745Z,8.32
2022-12-01T10:19:59.578Z,8.93
2022-12-01T10:22:46.174Z,7.30
2022-12-01T10:25:23.957Z,8.27
2022-12-01T10:28:06.954Z,8.05
2022-12-01T10:30:46.602Z,8.63
2022-12-01T10:33:34.041Z,7.95
2022-12-01T10:36:02.441Z,8.10
2022-12-01T10:38:37.058Z,7.40
2022-12-01T10:41:13.585Z,8.13
2022-12-01T10:43:44.764Z,8.20
2022-12-01T10:46:27.338Z,8.20
2022-12-01T10:48:58.217Z,7.82
2022-12-01T10:51:28.189Z,8.05
2022-12-01T10:54:06.910Z,7.68
2022-12-01T10:56:39.749Z,7.10
2022-12-01T10:59:44.145Z,6.55
2022-12-01T11:02:21.891Z,7.00
2022-12-01T11:05:07.665Z,6.00
2022-12-01T11:07:45.681Z,6.53
2022-12-01T11:10:19.558Z,6.63
2022-12-01T11:12:58.473Z,5.88
2022-12-01T11:15:30.880Z,5.90
2022-12-01T11:18:04.978Z,7.28
2022-12-01T11:20:39.588Z,6.05
2022-12-01T11:23:24.507Z,6.53
2022-12-01T11:26:11.362Z,6.50
2022-12-01T11:28:51.400Z,6.18
2022-12-01T11:31:22.199Z,5.70
2022-12-01T11:33:57.300Z,6.05
2022-12-01T11:36:38.740Z,5.80
2022-12-01T11:39:07.003Z,5.85
2022-12-01T11:41:42.081Z,5.22
2022-12-01T11:44:43.597Z,5.25
2022-12-01T11:47:26.184Z,5.40
2022-12-01T11:50:04.471Z,5.97
2022-12-01T11:52:36.703Z,5.70
2022-12-01T11:55:13.948Z,6.13
2022-12-01T11:57:45.888Z,5.60
2022-12-01T12:00:22.499Z,7.22
2022-12-01T12:03:15.859Z,6.55
2022-12-01T12:06:38.510Z,5.45
2022-12-01T12:09:24.868Z,4.90
2022-12-01T12:12:08.137Z,5.78
2022-12-01T12:14:51.934Z,6.20
2022-12-01T12:18:02.575Z,5.97
2022-12-01T12:21:08.482Z,5.22
2022-12-01T12:24:04.503Z,5.25
2022-12-01T12:26:48.388Z,4.88
2022-12-01T12:29:35.156Z,4.65
2022-12-01T12:32:33.723Z,4.63
2022-12-01T12:35:19.563Z,4.70
2022-12-01T12:38:11.618Z,4.95
2022-12-01T12:40:49.000Z,4.93
2022-12-01T12:43:47.151Z,5.13
2022-12-01T12:46:35.163Z,5.65
2022-12-01T12:49:43.867Z,5.57
2022-12-01T12:52:20.146Z,6.18
2022-12-01T12:55:03.084Z,6.35
2022-12-01T12:57:34.229Z,5.72
2022-12-01T13:00:05.714Z,5.85
2022-12-01T13:02:42.415Z,6.28
2022-12-01T13:05:23.780Z,6.15
2022-12-01T13:08:05.521Z,5.97
2022-12-01T13:10:38.159Z,6.03
2022-12-01T13:13:33.792Z,6.37
2022-12-01T13:16:05.510Z,6.60
2022-12-01T13:18:56.093Z,5.95
2022-12-01T13:21:24.553Z,6.53
2022-12-01T13:23:53.562Z,6.20
2022-12-01T13:26:22.551Z,6.72
2022-12-01T13:28:56.663Z,6.38
2022-12-01T13:31:25.167Z,5.65
2022-12-01T13:34:04.871Z,5.75
2022-12-01T13:36:49.701Z,5.85
2022-12-01T13:39:20.863Z,6.50
2022-12-01T13:42:00.729Z,5.88
2022-12-01T13:44:41.935Z,5.72
2022-12-01T13:47:13.123Z,6.00
2022-12-01T13:49:44.838Z,5.93
2022-12-01T13:52:22.208Z,6.47
2022-12-01T13:55:02.347Z,6.25
2022-12-01T13:57:33.480Z,5.57
2022-12-01T14:00:07.796Z,5.78
2022-12-01T14:02:41.703Z,6.03
2022-12-01T14:05:41.673Z,5.60
2022-12-01T14:08:23.324Z,6.05
2022-12-01T14:11:00.920Z,6.38
2022-12-01T14:13:30.857Z,6.03
2022-12-01T14:16:02.552Z,6.20
2022-12-01T14:18:51.439Z,6.65
2022-12-01T14:21:40.990Z,6.22
2022-12-01T14:24:23.578Z,7.28
2022-12-01T14:26:52.835Z,6.45
2022-12-01T14:29:31.936Z,6.75
2022-12-01T14:32:18.938Z,6.50
2022-12-01T14:34:51.851Z,6.13
2022-12-01T14:37:24.854Z,6.03
2022-12-01T14:40:12.828Z,5.50
2022-12-01T14:43:06.759Z,6.55
2022-12-01T14:48:20.027Z,6.20
2022-12-01T14:51:09.679Z,6.90
2022-12-01T14:53:44.873Z,7.18
2022-12-01T14:56:19.334Z,8.52
2022-12-01T14:59:03.665Z,8.50
2022-12-01T15:01:37.700Z,7.57
2022-12-01T15:04:07.215Z,8.45
2022-12-01T15:06:37.673Z,7.85
2022-12-01T15:09:33.926Z,8.02
2022-12-01T15:12:09.308Z,8.02
2022-12-01T15:14:46.308Z,7.75
2022-12-01T15:17:32.576Z,7.45
2022-12-01T15:20:01.370Z,7.43
2022-12-01T15:22:34.494Z,6.85
2022-12-01T15:25:15.082Z,7.47
2022-12-01T15:27:44.223Z,8.10
2022-12-01T15:30:16.833Z,7.40
2022-12-01T15:32:45.983Z,7.53
2022-12-01T15:35:21.797Z,8.18
2022-12-01T15:37:51.521Z,8.27
2022-12-01T15:41:06.291Z,7.72
2022-12-01T15:43:38.895Z,8.15
2022-12-01T15:46:18.282Z,8.00
2022-12-01T15:48:46.525Z,8.73
2022-12-01T15:51:19.567Z,9.57
2022-12-01T15:53:54.058Z,8.65
2022-12-01T15:56:35.301Z,9.27
2022-12-01T15:59:22.554Z,10.55
2022-12-01T16:01:50.881Z,11.40
2022-12-01T16:04:32.343Z,13.32
2022-12-01T16:07:06.980Z,11.85
2022-12-01T16:09:39.871Z,11.98
2022-12-01T16:12:17.726Z,8.88
2022-12-01T16:14:53.143Z,10.07
2022-12-01T16:17:22.606Z,10.70
2022-12-01T16:20:30.378Z,9.82
2022-12-01T16:23:05.483Z,9.98
2022-12-01T16:25:39.000Z,11.23
2022-12-01T16:28:26.589Z,11.70
2022-12-01T16:30:55.365Z,11.20
2022-12-01T16:33:25.820Z,10.60
2022-12-01T16:35:54.820Z,11.88
2022-12-01T16:38:25.111Z,11.05
2022-12-01T16:40:59.029Z,10.45
2022-12-01T16:43:31.491Z,10.40
2022-12-01T16:46:06.719Z,10.70
2022-12-01T16:48:35.046Z,10.57
2022-12-01T16:51:05.579Z,10.85
2022-12-01T16:53:34.377Z,10.02
2022-12-01T16:56:03.514Z,9.48
2022-12-01T16:58:32.085Z,10.05
2022-12-01T17:01:00.423Z,10.57
2022-12-01T17:03:29.126Z,10.32
2022-12-01T17:06:03.162Z,10.75
2022-12-01T17:08:31.433Z,9.55
2022-12-01T17:10:59.887Z,10.15
2022-12-01T17:13:28.193Z,9.35
2022-12-01T17:15:56.521Z,9.73
2022-12-01T17:18:25.523Z,9.80
2022-12-01T17:21:02.094Z,10.70
2022-12-01T17:23:30.678Z,9.38
2022-12-01T17:25:59.555Z,9.38
2022-12-01T17:28:27.923Z,10.00
2022-12-01T17:31:00.772Z,9.88
2022-12-01T17:33:29.069Z,10.23
2022-12-01T17:36:14.112Z,9.35
2022-12-01T17:38:45.894Z,10.18
2022-12-01T17:41:24.899Z,9.25
2022-12-01T17:43:53.216Z,9.77
2022-12-01T17:46:21.495Z,9.10
2022-12-01T17:48:49.779Z,9.48
2022-12-01T17:51:18.080Z,10.52
2022-12-01T17:53:46.541Z,9.20
2022-12-01T17:56:16.561Z,8.50
2022-12-01T17:58:45.297Z,9.23
2022-12-01T18:01:16.738Z,10.18
2022-12-01T18:03:45.559Z,15.93
2022-12-01T18:06:14.680Z,17.25
2022-12-01T18:08:45.357Z,14.48
2022-12-01T18:11:16.696Z,12.15
2022-12-01T18:13:47.773Z,11.38
2022-12-01T18:16:19.705Z,11.30
2022-12-01T18:18:48.540Z,10.57
2022-12-01T18:21:19.986Z,11.02
2022-12-01T18:24:00.681Z,10.57
2022-12-01T18:26:30.828Z,10.88
2022-12-01T18:29:12.296Z,12.80
2022-12-01T18:31:42.493Z,13.18
2022-12-01T18:34:11.768Z,13.45
2022-12-01T18:36:41.353Z,13.70
2022-12-01T18:39:11.141Z,12.25
2022-12-01T18:41:40.101Z,12.82
2022-12-01T18:44:08.603Z,12.85
2022-12-01T18:46:39.799Z,13.68
2022-12-01T18:49:09.187Z,13.88
2022-12-01T18:51:38.743Z,12.32
2022-12-01T18:54:08.908Z,13.18
2022-12-01T18:56:40.268Z,12.15
2022-12-01T18:59:10.818Z,9.88
2022-12-01T19:01:41.409Z,10.25
2022-12-01T19:04:10.458Z,9.52
2022-12-01T19:06:40.532Z,10.90
2022-12-01T19:09:11.091Z,10.57
2022-12-01T19:11:43.290Z,10.60
2022-12-01T19:14:17.962Z,11.75
2022-12-01T19:16:47.568Z,13.38
2022-12-01T19:19:16.583Z,13.93
2022-12-01T19:21:45.403Z,13.95
2022-12-01T19:24:13.810Z,12.95
2022-12-01T19:26:42.387Z,13.45
2022-12-01T19:29:10.827Z,12.38
2022-12-01T19:31:39.359Z,14.10
2022-12-01T19:34:07.724Z,12.32
2022-12-01T19:36:35.974Z,12.50
2022-12-01T19:39:07.723Z,11.13
2022-12-01T19:41:38.757Z,12.73
2022-12-01T19:44:07.158Z,11.43
2022-12-01T19:46:35.427Z,13.10
2022-12-01T19:49:04.998Z,11.50
2022-12-01T19:51:36.158Z,11.88
2022-12-01T19:54:08.745Z,11.02
2022-12-01T19:56:36.899Z,10.75
2022-12-01T19:59:07.774Z,9.63
2022-12-01T20:01:35.989Z,9.48
2022-12-01T20:04:05.160Z,9.32
2022-12-01T20:06:35.566Z,8.48
2022-12-01T20:09:06.031Z,10.73
2022-12-01T20:11:35.505Z,9.40
2022-12-01T20:14:07.665Z,9.30
2022-12-01T20:16:36.160Z,8.90
2022-12-01T20:19:05.678Z,8.65
2022-12-01T20:21:36.692Z,9.18
2022-12-01T20:24:07.708Z,9.82
2022-12-01T20:26:42.142Z,11.85
2022-12-01T20:29:20.626Z,12.07
2022-12-01T20:31:51.902Z,11.98
2022-12-01T20:34:25.528Z,10.98
2022-12-01T20:36:55.787Z,11.40
2022-12-01T20:39:32.421Z,11.48
2022-12-01T20:42:01.108Z,10.48
2022-12-01T20:44:29.388Z,11.95
2022-12-01T20:46:57.851Z,10.45
2022-12-01T20:49:26.122Z,10.30
2022-12-01T20:51:54.763Z,10.50
2022-12-01T20:54:28.432Z,11.25
2022-12-01T20:56:58.493Z,12.63
2022-12-01T20:59:27.645Z,11.43
2022-12-01T21:01:56.330Z,11.88
2022-12-01T21:04:24.694Z,13.55
2022-12-01T21:06:58.030Z,15.10
2022-12-01T21:09:26.660Z,15.52
2022-12-01T21:12:16.106Z,15.82
2022-12-01T21:15:02.785Z,14.60
2022-12-01T21:17:39.991Z,15.02
2022-12-01T21:20:21.940Z,13.55
2022-12-01T21:22:51.479Z,15.15
2022-12-01T21:25:23.428Z,14.93
2022-12-01T21:27:52.118Z,14.57
2022-12-01T21:30:24.992Z,14.20
2022-12-01T21:32:54.335Z,14.02
2022-12-01T21:35:27.258Z,13.68
2022-12-01T21:38:04.048Z,12.98
2022-12-01T21:40:32.408Z,14.15
2022-12-01T21:43:14.440Z,13.95
2022-12-01T21:45:42.740Z,13.10
2022-12-01T21:48:16.430Z,13.52
2022-12-01T21:50:48.109Z,13.48
2022-12-01T21:53:21.400Z,14.35
2022-12-01T21:55:49.626Z,14.13
2022-12-01T21:58:27.470Z,13.85
2022-12-01T22:00:58.329Z,13.55
2022-12-01T22:03:33.589Z,13.23
2022-12-01T22:06:29.641Z,12.77
2022-12-01T22:09:11.663Z,13.23
2022-12-01T22:11:42.371Z,13.57
2022-12-01T22:14:27.792Z,12.90
2022-12-01T22:17:06.415Z,13.15
2022-12-01T22:19:56.937Z,13.93
2022-12-01T22:22:32.753Z,12.30
2022-12-01T22:25:20.901Z,13.10
2022-12-01T22:27:49.073Z,13.05
2022-12-01T22:30:24.578Z,13.02
2022-12-01T22:33:04.909Z,12.73
2022-12-01T22:35:48.329Z,13.30
2022-12-01T22:38:38.044Z,12.98
2022-12-01T22:41:06.412Z,12.50
2022-12-01T22:43:51.005Z,13.05
2022-12-01T22:46:39.955Z,12.63
2022-12-01T22:49:19.491Z,11.70
2022-12-01T22:51:53.099Z,12.80
2022-12-01T22:54:30.132Z,13.07
2022-12-01T22:57:21.403Z,13.20
2022-12-01T22:59:50.414Z,12.30
2022-12-01T23:02:27.082Z,11.90
2022-12-01T23:05:01.625Z,14.02
2022-12-01T23:07:41.406Z,12.82
2022-12-01T23:10:18.939Z,12.90
2022-12-01T23:12:49.748Z,11.75
2022-12-01T23:15:32.987Z,12.35
2022-12-01T23:18:18.749Z,12.88
2022-12-01T23:20:55.542Z,13.90
2022-12-01T23:23:36.038Z,13.65
2022-12-01T23:26:06.798Z,15.55
2022-12-01T23:28:39.119Z,15.45
2022-12-01T23:31:08.943Z,14.98
2022-12-01T23:33:37.542Z,17.95
2022-12-01T23:36:34.866Z,17.20
2022-12-01T23:39:10.287Z,13.95
2022-12-01T23:41:47.408Z,16.98
2022-12-01T23:44:34.072Z,16.35
2022-12-01T23:47:03.171Z,16.45
2022-12-01T23:49:34.821Z,16.80
2022-12-01T23:52:03.791Z,15.30
2022-12-01T23:54:34.830Z,9.82
2022-12-01T23:57:11.869Z,4.88
2022-12-01T23:59:40.144Z,4.47
